createdAt,value
2018-07-16T00:00:22.122Z,16.50
2018-07-16T00:02:51.261Z,16.50
2018-07-16T00:05:20.048Z,16.40
2018-07-16T00:07:49.011Z,16.30
2018-07-16T00:10:17.461Z,16.40
2018-07-16T00:12:46.147Z,16.40
2018-07-16T00:15:14.638Z,16.40
2018-07-16T00:17:43.050Z,16.50
2018-07-16T00:20:11.560Z,16.50
2018-07-16T00:22:39.906Z,16.50
2018-07-16T00:25:08.343Z,16.50
2018-07-16T00:27:36.691Z,16.40
2018-07-16T00:30:05.352Z,16.30
2018-07-16T00:32:33.766Z,16.40
2018-07-16T00:35:02.749Z,16.40
2018-07-16T00:37:31.159Z,16.40
2018-07-16T00:39:59.662Z,16.50
2018-07-16T00:42:27.969Z,16.40
2018-07-16T00:44:56.418Z,16.40
2018-07-16T00:47:24.830Z,16.50
2018-07-16T00:49:53.214Z,16.60
2018-07-16T00:52:21.655Z,16.60
2018-07-16T00:54:50.889Z,16.60
2018-07-16T00:57:20.106Z,16.50
2018-07-16T00:59:48.592Z,16.50
2018-07-16T01:02:17.002Z,16.50
2018-07-16T01:04:45.466Z,16.50
2018-07-16T01:07:13.903Z,16.50
2018-07-16T01:09:42.304Z,16.50
2018-07-16T01:12:10.671Z,16.40
2018-07-16T01:14:39.156Z,16.40
2018-07-16T01:17:07.533Z,16.40
2018-07-16T01:19:36.018Z,16.40
2018-07-16T01:22:04.394Z,16.30
2018-07-16T01:24:33.196Z,16.30
2018-07-16T01:27:01.583Z,16.30
2018-07-16T01:29:30.023Z,16.30
2018-07-16T01:31:58.376Z,16.30
2018-07-16T01:34:26.757Z,16.30
2018-07-16T01:36:55.210Z,16.20
2018-07-16T01:39:23.669Z,16.30
2018-07-16T01:41:51.978Z,16.30
2018-07-16T01:44:21.374Z,16.30
2018-07-16T01:46:50.091Z,16.40
2018-07-16T01:49:18.439Z,16.30
2018-07-16T01:51:46.771Z,16.30
2018-07-16T01:54:15.119Z,16.40
2018-07-16T01:56:43.483Z,16.40
2018-07-16T01:59:11.937Z,16.30
2018-07-16T02:01:40.376Z,16.30
2018-07-16T02:04:08.905Z,16.30
2018-07-16T02:06:37.663Z,16.30
2018-07-16T02:09:06.105Z,16.30
2018-07-16T02:11:34.502Z,16.30
2018-07-16T02:14:03.397Z,16.30
2018-07-16T02:16:31.894Z,16.20
2018-07-16T02:19:00.357Z,16.10
2018-07-16T02:21:28.797Z,16.00
2018-07-16T02:23:57.142Z,16.10
2018-07-16T02:26:25.628Z,16.10
2018-07-16T02:28:53.989Z,16.10
2018-07-16T02:31:22.583Z,16.10
2018-07-16T02:33:51.050Z,16.20
2018-07-16T02:36:19.527Z,16.20
2018-07-16T02:38:47.945Z,16.30
2018-07-16T02:41:16.422Z,16.30
2018-07-16T02:43:44.897Z,16.30
2018-07-16T02:46:13.559Z,16.30
2018-07-16T02:48:41.994Z,16.30
2018-07-16T02:51:10.631Z,16.30
2018-07-16T02:53:39.004Z,16.30
2018-07-16T02:56:07.843Z,16.30
2018-07-16T02:58:36.339Z,16.20
2018-07-16T03:01:05.756Z,16.30
2018-07-16T03:03:34.081Z,16.30
2018-07-16T03:06:02.616Z,16.40
2018-07-16T03:08:30.995Z,16.40
2018-07-16T03:11:00.841Z,16.40
2018-07-16T03:13:29.234Z,16.30
2018-07-16T03:15:57.756Z,16.30
2018-07-16T03:18:26.090Z,16.20
2018-07-16T03:20:55.543Z,16.10
2018-07-16T03:23:24.004Z,16.10
2018-07-16T03:25:52.594Z,16.00
2018-07-16T03:28:21.103Z,16.00
2018-07-16T03:30:49.570Z,16.00
2018-07-16T03:33:17.903Z,15.90
2018-07-16T03:35:46.342Z,15.90
2018-07-16T03:38:14.727Z,16.00
2018-07-16T03:40:44.291Z,16.00
2018-07-16T03:43:12.762Z,16.00
2018-07-16T03:45:41.291Z,16.00
2018-07-16T03:48:09.859Z,16.00
2018-07-16T03:50:39.541Z,16.00
2018-07-16T03:53:07.998Z,15.90
2018-07-16T03:55:36.450Z,15.90
2018-07-16T03:58:04.965Z,16.00
2018-07-16T04:00:34.488Z,16.00
2018-07-16T04:03:03.634Z,16.00
2018-07-16T04:05:32.132Z,16.00
2018-07-16T04:08:00.500Z,16.00
2018-07-16T04:10:30.021Z,16.00
2018-07-16T04:12:58.479Z,15.90
2018-07-16T04:15:26.997Z,15.90
2018-07-16T05:39:53.405Z,15.90
2018-07-16T05:42:22.154Z,16.00
2018-07-16T05:44:50.956Z,16.00
2018-07-16T05:47:19.380Z,16.00
2018-07-16T05:49:47.834Z,16.00
2018-07-16T05:52:16.314Z,16.10
2018-07-16T05:54:44.799Z,16.10
2018-07-16T05:57:13.120Z,16.10
2018-07-16T05:59:41.635Z,16.20
2018-07-16T06:02:10.112Z,16.20
2018-07-16T06:04:38.852Z,16.30
2018-07-16T06:07:07.297Z,16.50
2018-07-16T06:09:35.763Z,16.50
2018-07-16T06:12:04.122Z,16.50
2018-07-16T06:14:32.655Z,16.40
2018-07-16T06:17:01.236Z,16.40
2018-07-16T07:05:22.681Z,16.60
2018-07-16T07:07:51.847Z,16.50
2018-07-16T07:12:48.623Z,16.50
2018-07-16T07:15:16.994Z,16.50
2018-07-16T07:17:45.421Z,16.60
2018-07-16T07:20:13.862Z,16.70
2018-07-16T07:22:42.673Z,16.90
2018-07-16T07:25:11.110Z,17.00
2018-07-16T07:27:39.523Z,16.90
2018-07-16T07:30:07.968Z,16.90
2018-07-16T07:32:36.721Z,16.80
2018-07-16T07:35:05.408Z,16.90
2018-07-16T07:37:34.102Z,17.00
2018-07-16T07:40:02.625Z,16.90
2018-07-16T07:42:31.401Z,17.00
2018-07-16T07:44:59.963Z,17.00
2018-07-16T07:47:28.322Z,17.00
2018-07-16T07:49:57.178Z,17.00
2018-07-16T07:52:25.965Z,16.90
2018-07-16T07:54:54.734Z,17.00
2018-07-16T07:57:23.014Z,17.00
2018-07-16T07:59:52.160Z,17.00
2018-07-16T08:02:21.214Z,17.10
2018-07-16T08:04:50.348Z,17.00
2018-07-16T08:07:19.376Z,17.00
2018-07-16T08:09:47.845Z,17.00
2018-07-16T08:12:16.855Z,17.00
2018-07-16T08:14:45.352Z,17.00
2018-07-16T08:17:14.010Z,17.00
2018-07-16T08:19:42.650Z,17.10
2018-07-16T08:22:11.610Z,17.10
2018-07-16T08:24:40.528Z,17.10
2018-07-16T08:27:09.576Z,17.10
2018-07-16T08:29:38.381Z,17.20
2018-07-16T08:32:07.838Z,17.30
2018-07-16T08:34:36.538Z,17.30
2018-07-16T08:37:05.170Z,17.40
2018-07-16T08:39:33.803Z,17.50
2018-07-16T08:42:02.778Z,17.50
2018-07-16T08:44:31.500Z,17.60
2018-07-16T08:47:00.083Z,17.60
2018-07-16T08:49:28.513Z,17.60
2018-07-16T08:51:56.847Z,17.60
2018-07-16T08:54:25.251Z,17.70
2018-07-16T08:56:53.632Z,17.60
2018-07-16T08:59:22.873Z,17.50
2018-07-16T09:01:52.394Z,17.40
2018-07-16T09:04:21.613Z,17.50
2018-07-16T09:06:50.805Z,17.40
2018-07-16T09:09:19.542Z,17.50
2018-07-16T09:11:48.021Z,17.50
2018-07-16T09:14:16.679Z,17.70
2018-07-16T09:19:13.439Z,17.70
2018-07-16T09:21:41.990Z,17.90
2018-07-16T09:24:10.401Z,18.00
2018-07-16T09:26:38.765Z,17.90
2018-07-16T09:29:07.390Z,17.90
2018-07-16T09:31:36.143Z,17.80
2018-07-16T09:34:05.008Z,17.80
2018-07-16T09:36:33.711Z,17.80
2018-07-16T09:39:02.248Z,17.90
2018-07-16T09:41:30.885Z,18.00
2018-07-16T09:43:59.456Z,18.00
2018-07-16T09:46:27.879Z,18.10
2018-07-16T09:48:56.335Z,18.30
2018-07-16T09:51:24.820Z,18.20
2018-07-16T09:53:53.231Z,18.20
2018-07-16T09:56:22.010Z,18.20
2018-07-16T09:58:50.858Z,18.20
2018-07-16T10:01:24.580Z,18.20
2018-07-16T10:06:22.317Z,18.40
2018-07-16T10:11:19.587Z,18.30
2018-07-16T10:13:47.967Z,18.30
2018-07-16T10:16:16.416Z,18.30
2018-07-16T10:18:44.774Z,18.30
2018-07-16T10:21:13.599Z,18.40
2018-07-16T10:23:41.972Z,18.50
2018-07-16T10:26:10.323Z,18.50
2018-07-16T10:28:38.764Z,18.50
2018-07-16T10:31:08.612Z,18.40
2018-07-16T10:33:37.063Z,18.40
2018-07-16T10:36:05.695Z,18.40
2018-07-16T10:38:34.072Z,18.40
2018-07-16T10:41:03.924Z,18.40
2018-07-16T10:43:32.293Z,18.40
2018-07-16T10:46:00.807Z,18.30
2018-07-16T10:48:29.224Z,18.30
2018-07-16T10:50:58.677Z,18.20
2018-07-16T10:53:27.087Z,18.10
2018-07-16T10:55:55.572Z,18.10
2018-07-16T10:58:23.915Z,18.10
2018-07-16T11:00:52.386Z,18.00
2018-07-16T11:03:20.766Z,18.20
2018-07-16T11:05:49.617Z,18.30
2018-07-16T11:08:18.014Z,18.30
2018-07-16T11:10:46.490Z,18.10
2018-07-16T11:13:14.830Z,18.00
2018-07-16T11:15:43.262Z,18.00
2018-07-16T11:18:11.619Z,17.90
2018-07-16T11:20:41.023Z,17.90
2018-07-16T11:23:09.433Z,17.90
2018-07-16T11:25:37.883Z,18.00
2018-07-16T11:28:06.349Z,18.00
2018-07-16T11:30:36.199Z,18.00
2018-07-16T11:33:04.767Z,18.00
2018-07-16T11:35:33.287Z,18.00
2018-07-16T11:38:01.788Z,18.00
2018-07-16T11:40:31.234Z,18.00
2018-07-16T11:42:59.693Z,18.10
2018-07-16T11:45:28.223Z,18.40
2018-07-16T11:47:56.814Z,18.40
2018-07-16T11:50:25.278Z,18.40
2018-07-16T11:52:53.683Z,18.30
2018-07-16T11:55:22.150Z,18.40
2018-07-16T11:57:51.338Z,18.30
2018-07-16T12:00:20.667Z,18.40
2018-07-16T12:02:49.166Z,18.60
2018-07-16T12:05:17.763Z,18.60
2018-07-16T12:07:46.291Z,18.60
2018-07-16T12:10:14.769Z,18.70
2018-07-16T12:12:43.773Z,18.80
2018-07-16T12:15:12.426Z,18.90
2018-07-16T12:17:40.850Z,19.00
2018-07-16T12:20:09.418Z,19.00
2018-07-16T12:22:37.928Z,19.10
2018-07-16T12:25:06.441Z,19.00
2018-07-16T12:27:34.960Z,19.00
2018-07-16T12:30:03.640Z,19.00
2018-07-16T12:32:32.147Z,19.10
2018-07-16T12:35:00.688Z,19.20
2018-07-16T12:37:29.362Z,19.30
2018-07-16T12:39:57.857Z,19.40
2018-07-16T12:42:26.228Z,19.30
2018-07-16T12:44:54.670Z,19.30
2018-07-16T12:47:23.050Z,19.30
2018-07-16T12:49:51.538Z,19.30
2018-07-16T12:52:20.698Z,19.30
2018-07-16T12:54:49.218Z,19.50
2018-07-16T12:57:17.762Z,19.50
2018-07-16T12:59:46.341Z,19.40
2018-07-16T13:04:42.923Z,19.80
2018-07-16T13:07:11.389Z,19.90
2018-07-16T13:09:39.907Z,19.90
2018-07-16T13:12:08.308Z,20.00
2018-07-16T13:14:36.638Z,20.10
2018-07-16T13:17:05.240Z,20.30
2018-07-16T13:19:33.646Z,20.40
2018-07-16T13:22:02.122Z,20.50
2018-07-16T13:24:30.525Z,20.60
2018-07-16T13:26:59.519Z,20.60
2018-07-16T13:29:27.995Z,20.70
2018-07-16T13:31:56.422Z,20.90
2018-07-16T13:34:24.891Z,21.00
2018-07-16T13:36:53.326Z,20.90
2018-07-16T13:39:22.241Z,21.00
2018-07-16T13:41:51.400Z,21.10
2018-07-16T13:44:20.619Z,21.20
2018-07-16T13:46:49.098Z,21.30
2018-07-16T13:49:17.731Z,21.30
2018-07-16T13:51:46.082Z,21.20
2018-07-16T13:54:14.627Z,21.10
2018-07-16T13:56:43.055Z,21.00
2018-07-16T13:59:11.537Z,21.00
2018-07-16T14:01:40.056Z,21.00
2018-07-16T14:04:08.684Z,21.00
2018-07-16T14:06:37.014Z,20.90
2018-07-16T14:09:07.408Z,20.90
2018-07-16T14:11:35.875Z,20.80
2018-07-16T14:14:04.858Z,20.80
2018-07-16T14:16:33.259Z,20.80
2018-07-16T14:19:01.640Z,20.70
2018-07-16T14:21:30.093Z,20.70
2018-07-16T14:23:58.503Z,20.70
2018-07-16T14:26:27.033Z,20.80
2018-07-16T14:28:55.450Z,20.80
2018-07-16T14:31:23.875Z,20.90
2018-07-16T14:33:53.184Z,21.00
2018-07-16T14:36:21.731Z,21.00
2018-07-16T14:38:50.607Z,21.10
2018-07-16T14:41:19.052Z,21.20
2018-07-16T14:43:47.528Z,21.20
2018-07-16T14:46:15.989Z,21.30
2018-07-16T14:48:44.492Z,21.30
2018-07-16T14:51:12.921Z,21.40
2018-07-16T14:53:41.686Z,21.40
2018-07-16T14:56:10.089Z,21.40
2018-07-16T14:58:38.516Z,21.40
2018-07-16T15:01:07.222Z,21.30
2018-07-16T15:03:35.581Z,21.30
2018-07-16T15:06:04.033Z,21.20
2018-07-16T15:08:32.524Z,21.10
2018-07-16T15:11:01.078Z,21.20
2018-07-16T15:13:29.467Z,21.20
2018-07-16T15:15:57.983Z,21.10
2018-07-16T15:18:26.411Z,21.20
2018-07-16T15:20:55.128Z,21.20
2018-07-16T15:23:23.665Z,21.20
2018-07-16T15:25:52.915Z,21.30
2018-07-16T15:28:22.512Z,21.30
2018-07-16T15:30:50.946Z,21.30
2018-07-16T15:33:19.330Z,21.40
2018-07-16T15:35:47.670Z,21.30
2018-07-16T15:38:16.143Z,21.30
2018-07-16T15:40:44.630Z,21.40
2018-07-16T15:43:13.123Z,21.40
2018-07-16T15:45:41.509Z,21.30
2018-07-16T15:48:10.103Z,21.20
2018-07-16T15:50:38.631Z,21.10
2018-07-16T15:53:07.529Z,21.10
2018-07-16T15:55:35.906Z,21.00
2018-07-16T15:58:04.471Z,21.00
2018-07-16T16:00:32.822Z,20.90
2018-07-16T16:03:01.389Z,20.80
2018-07-16T16:05:29.765Z,20.70
2018-07-16T16:07:58.325Z,20.70
2018-07-16T16:10:27.082Z,20.70
2018-07-16T16:12:55.791Z,20.70
2018-07-16T16:15:24.462Z,20.70
2018-07-16T16:17:52.913Z,20.70
2018-07-16T16:20:21.949Z,20.60
2018-07-16T16:22:51.027Z,20.60
2018-07-16T16:25:19.751Z,20.60
2018-07-16T16:27:48.294Z,20.50
2018-07-16T16:30:16.760Z,20.50
2018-07-16T17:54:43.687Z,20.60
2018-07-16T17:57:13.798Z,19.90
2018-07-16T17:59:42.253Z,19.80
2018-07-16T18:02:11.075Z,19.70
2018-07-16T18:04:39.457Z,19.60
2018-07-16T18:07:07.878Z,19.60
2018-07-16T18:09:36.272Z,19.60
2018-07-16T18:12:04.811Z,19.60
2018-07-16T18:14:33.215Z,19.50
2018-07-16T18:17:01.608Z,19.50
2018-07-16T18:19:30.059Z,19.40
2018-07-16T18:21:59.563Z,19.40
2018-07-16T18:24:28.016Z,19.40
2018-07-16T18:26:56.532Z,19.20
2018-07-16T18:29:24.989Z,19.20
2018-07-16T18:31:54.061Z,19.10
2018-07-16T18:34:23.435Z,19.10
2018-07-16T18:36:52.461Z,19.00
2018-07-16T18:39:21.662Z,19.00
2018-07-16T18:41:50.716Z,18.90
2018-07-16T18:44:19.125Z,18.80
2018-07-16T18:46:47.623Z,18.80
2018-07-16T18:49:15.950Z,18.80
2018-07-16T18:51:44.683Z,18.90
2018-07-16T18:54:13.508Z,18.80
2018-07-16T18:56:42.178Z,18.80
2018-07-16T18:59:10.946Z,18.70
2018-07-16T19:01:39.771Z,18.70
2018-07-16T19:06:37.312Z,18.70
2018-07-16T19:09:06.976Z,18.60
2018-07-16T19:11:35.367Z,18.60
2018-07-16T19:14:03.758Z,18.50
2018-07-16T19:16:32.246Z,18.50
2018-07-16T19:19:00.575Z,18.50
2018-07-16T19:21:29.037Z,18.50
2018-07-16T19:23:57.733Z,18.50
2018-07-16T19:26:26.309Z,18.40
2018-07-16T19:28:54.703Z,18.40
2018-07-16T19:31:23.235Z,18.30
2018-07-16T19:33:52.526Z,18.30
2018-07-16T19:36:21.641Z,18.30
2018-07-16T19:38:50.862Z,18.30
2018-07-16T19:41:19.421Z,18.20
2018-07-16T19:43:47.838Z,18.20
2018-07-16T19:46:16.358Z,18.10
2018-07-16T19:48:44.691Z,18.00
2018-07-16T19:51:14.771Z,18.00
2018-07-16T19:53:43.183Z,18.00
2018-07-16T19:56:11.710Z,18.00
2018-07-16T19:58:40.181Z,18.00
2018-07-16T20:01:09.329Z,18.00
2018-07-16T20:03:37.899Z,17.80
2018-07-16T20:06:06.449Z,17.70
2018-07-16T20:08:34.833Z,17.70
2018-07-16T20:11:03.252Z,17.70
2018-07-16T20:13:31.668Z,17.70
2018-07-16T20:16:00.024Z,17.60
2018-07-16T20:18:28.519Z,17.50
2018-07-16T20:20:59.228Z,17.50
2018-07-16T20:23:27.746Z,17.30
2018-07-16T20:25:57.337Z,17.30
2018-07-16T20:28:25.963Z,17.20
2018-07-16T20:30:54.938Z,17.30
2018-07-16T20:33:23.738Z,17.30
2018-07-16T20:35:52.527Z,17.30
2018-07-16T20:38:21.571Z,17.40
2018-07-16T20:40:50.376Z,17.40
2018-07-16T20:43:18.803Z,17.40
2018-07-16T20:45:47.257Z,17.30
2018-07-16T20:48:15.590Z,17.30
2018-07-16T20:50:44.109Z,17.30
2018-07-16T20:53:12.871Z,17.20
2018-07-16T20:55:41.359Z,17.10
2018-07-16T20:58:09.767Z,17.00
2018-07-16T21:00:38.187Z,17.10
2018-07-16T21:03:06.744Z,17.10
2018-07-16T21:05:35.154Z,17.20
2018-07-16T21:08:03.595Z,17.20
2018-07-16T21:10:32.010Z,17.30
2018-07-16T21:13:00.318Z,17.20
2018-07-16T21:15:28.799Z,17.20
2018-07-16T21:17:57.245Z,17.10
2018-07-16T21:20:25.894Z,17.10
2018-07-16T21:22:54.321Z,17.10
2018-07-16T21:25:23.230Z,17.10
2018-07-16T21:27:52.358Z,17.00
2018-07-16T21:30:21.717Z,17.10
2018-07-16T21:32:50.486Z,17.00
2018-07-16T21:35:19.259Z,17.00
2018-07-16T21:37:47.629Z,17.00
2018-07-16T21:40:16.201Z,16.90
2018-07-16T21:42:45.154Z,16.90
2018-07-16T21:45:13.953Z,16.90
2018-07-16T21:47:42.720Z,16.90
2018-07-16T21:50:11.106Z,16.90
2018-07-16T21:52:39.516Z,16.80
2018-07-16T21:55:08.023Z,16.70
2018-07-16T21:57:36.475Z,16.80
2018-07-16T22:00:07.268Z,16.80
2018-07-16T22:02:35.598Z,16.80
2018-07-16T22:05:04.119Z,16.70
2018-07-16T22:07:32.468Z,16.70
2018-07-16T22:10:00.976Z,16.70
2018-07-16T22:12:29.381Z,16.70
2018-07-16T22:14:57.814Z,16.70
2018-07-16T22:17:26.223Z,16.70
2018-07-16T22:19:54.579Z,16.70
2018-07-16T22:22:23.084Z,16.70
2018-07-16T22:24:52.181Z,16.50
2018-07-16T22:27:21.056Z,16.50
2018-07-16T22:29:49.521Z,16.40
2018-07-16T22:32:17.930Z,16.50
2018-07-16T22:34:46.299Z,16.50
2018-07-16T22:37:14.724Z,16.50
2018-07-16T22:39:43.123Z,16.50
2018-07-16T22:42:11.529Z,16.40
2018-07-16T22:44:40.147Z,16.40
2018-07-16T22:47:08.539Z,16.40
2018-07-16T22:49:37.021Z,16.40
2018-07-16T22:52:05.446Z,16.40
2018-07-16T22:54:33.838Z,16.30
2018-07-16T22:57:02.627Z,16.20
2018-07-16T22:59:31.084Z,16.10
2018-07-16T23:01:59.678Z,16.20
2018-07-16T23:04:28.104Z,16.10
2018-07-16T23:06:56.517Z,16.10
2018-07-16T23:09:25.006Z,16.10
2018-07-16T23:11:53.411Z,16.10
2018-07-16T23:14:22.564Z,16.20
2018-07-16T23:16:50.968Z,16.10
2018-07-16T23:19:19.375Z,15.90
2018-07-16T23:21:47.693Z,15.90
2018-07-16T23:24:16.705Z,16.00
2018-07-16T23:26:45.184Z,15.90
2018-07-16T23:29:13.692Z,15.90
2018-07-16T23:31:42.221Z,15.90
2018-07-16T23:34:10.940Z,15.80
2018-07-16T23:36:39.464Z,15.80
2018-07-16T23:39:09.955Z,15.80
2018-07-16T23:41:38.413Z,15.80
2018-07-16T23:44:07.281Z,15.90
2018-07-16T23:46:35.782Z,15.90
2018-07-16T23:49:04.265Z,15.90
2018-07-16T23:51:32.921Z,15.70
2018-07-16T23:54:01.481Z,15.70
2018-07-16T23:56:29.973Z,15.90
2018-07-16T23:58:58.380Z,15.90
